Time;durP1;ratioP1;P1;durP2;ratioP2;P2;SDS_P1;SDS_P2;PMS_P1;PMS_P2;Temp;Humidity;BMP_temperature;BMP_pressure;BME280_temperature;BME280_humidity;BME280_pressure;Samples;Min_cycle;Max_cycle;Signal;HPM_P1;HPM_P2
2023/05/02 00:00:37;;;;;;;0.10;0.10;;;;;;;15.05;62.35;101743.50;7346019;19;20014;-59
2023/05/02 00:03:04;;;;;;;0.00;0.00;;;;;;;15.05;62.84;101746.13;7346268;19;20014;-60
2023/05/02 00:05:29;;;;;;;0.10;0.10;;;;;;;15.01;62.47;101744.50;7346299;19;20031;-60
2023/05/02 00:07:55;;;;;;;0.00;0.00;;;;;;;14.97;62.85;101741.06;7349203;19;20017;-60
2023/05/02 00:10:21;;;;;;;0.00;0.00;;;;;;;15.06;62.95;101755.78;7346140;19;20511;-60
2023/05/02 00:12:46;;;;;;;0.10;0.10;;;;;;;15.04;63.19;101753.16;7347239;19;20042;-60
2023/05/02 00:15:12;;;;;;;0.00;0.00;;;;;;;15.03;63.25;101746.19;7345732;19;20116;-60
2023/05/02 00:17:40;;;;;;;0.00;0.00;;;;;;;15.09;63.01;101755.69;7345521;19;20037;-59
2023/05/02 00:20:08;;;;;;;0.00;0.00;;;;;;;15.09;63.61;101755.69;7344334;19;20699;-60
2023/05/02 00:22:33;;;;;;;;;;;;;;;15.12;60.99;101755.63;7346906;19;20548;-60
2023/05/02 00:24:59;;;;;;;0.00;0.00;;;;;;;15.11;63.11;101764.44;7347227;19;20012;-59
2023/05/02 00:27:24;;;;;;;0.10;0.10;;;;;;;15.10;63.07;101757.41;7346062;19;20079;-60
2023/05/02 00:29:51;;;;;;;0.00;0.00;;;;;;;15.11;63.20;101759.16;7346997;19;20014;-60
2023/05/02 00:32:17;;;;;;;0.10;0.10;;;;;;;15.13;63.31;101757.34;7346938;19;20019;-60
2023/05/02 00:34:42;;;;;;;0.10;0.10;;;;;;;15.13;63.67;101757.34;7346829;19;20459;-60
2023/05/02 00:37:08;;;;;;;0.00;0.00;;;;;;;15.14;63.44;101760.84;7347431;19;20011;-59
2023/05/02 00:39:34;;;;;;;0.00;0.00;;;;;;;15.14;63.81;101761.69;7345388;19;20133;-60
2023/05/02 00:42:00;;;;;;;0.10;0.10;;;;;;;15.15;63.67;101760.78;7347305;19;20010;-59
2023/05/02 00:44:26;;;;;;;0.00;0.00;;;;;;;15.09;63.80;101754.81;7346917;19;20042;-60
2023/05/02 00:46:53;;;;;;;0.08;0.08;;;;;;;15.17;64.03;101761.63;7347818;19;20471;-60
2023/05/02 00:49:18;;;;;;;0.00;0.00;;;;;;;15.18;63.79;101766.00;7344395;19;20013;-59
2023/05/02 00:51:44;;;;;;;0.00;0.00;;;;;;;15.18;63.91;101771.25;7347841;19;20022;-60
2023/05/02 00:54:11;;;;;;;0.10;0.10;;;;;;;15.19;63.97;101770.34;7344685;19;20019;-59
2023/05/02 00:56:36;;;;;;;0.10;0.10;;;;;;;15.21;63.91;101768.56;7352057;19;20127;-60
2023/05/02 00:59:04;;;;;;;0.10;0.10;;;;;;;15.22;64.05;101761.53;7352145;19;20487;-59
2023/05/02 01:01:48;;;;;;;0.03;0.03;;;;;;;15.25;63.34;101759.66;7353731;19;20734;-60
2023/05/02 01:04:35;;;;;;;0.00;0.00;;;;;;;15.26;63.29;101757.91;7353241;19;20014;-59
2023/05/02 01:07:33;;;;;;;0.00;0.00;;;;;;;15.27;62.94;101765.75;7352037;19;20016;-60
2023/05/02 01:10:14;;;;;;;0.00;0.00;;;;;;;15.25;63.69;101761.44;7246742;19;2004293;-60
2023/05/02 01:12:47;;;;;;;0.10;0.10;;;;;;;15.21;63.59;101759.81;7352764;19;20101;-60
2023/05/02 01:15:19;;;;;;;0.08;0.08;;;;;;;15.22;63.30;101759.75;7351251;19;20027;-60
2023/05/02 01:17:48;;;;;;;0.00;0.00;;;;;;;15.20;63.38;101764.19;7351557;19;20030;-60
2023/05/02 01:20:19;;;;;;;0.10;0.10;;;;;;;15.19;63.42;101767.72;7350899;19;20082;-60
2023/05/02 01:22:45;;;;;;;0.00;0.00;;;;;;;15.16;63.04;101765.19;7352264;19;20014;-60
2023/05/02 01:25:32;;;;;;;0.00;0.00;;;;;;;15.16;63.16;101764.31;7350591;19;20014;-62
2023/05/02 01:28:25;;;;;;;0.00;0.00;;;;;;;15.14;62.56;101764.34;7352903;19;20423;-60
2023/05/02 01:30:53;;;;;;;0.00;0.00;;;;;;;15.12;62.79;101768.78;7251119;19;2004490;-59
2023/05/02 01:33:20;;;;;;;0.10;0.10;;;;;;;15.09;63.17;101771.47;7350336;19;20021;-60
2023/05/02 01:35:50;;;;;;;0.03;0.03;;;;;;;15.05;63.52;101757.56;7350721;19;20026;-60
2023/05/02 01:38:17;;;;;;;0.10;0.10;;;;;;;14.95;63.40;101747.25;7348490;19;20019;-60
2023/05/02 01:40:49;;;;;;;0.00;0.00;;;;;;;15.03;63.09;101761.97;7350724;19;20010;-60
2023/05/02 01:43:15;;;;;;;0.10;0.10;;;;;;;15.03;63.53;101771.63;7351901;19;20096;-60
2023/05/02 01:45:44;;;;;;;0.00;0.00;;;;;;;15.05;63.75;101772.44;7351056;19;20022;-60
2023/05/02 01:48:10;;;;;;;0.00;0.00;;;;;;;15.03;63.29;101771.63;7351913;19;20014;-60
2023/05/02 01:50:38;;;;;;;0.00;0.00;;;;;;;15.00;63.35;101766.44;7351553;19;19998;-60
2023/05/02 01:53:06;;;;;;;0.00;0.00;;;;;;;14.99;63.87;101767.34;7351361;19;20025;-60
2023/05/02 01:55:34;;;;;;;0.00;0.00;;;;;;;15.01;63.88;101774.31;7352512;19;20038;-60
2023/05/02 01:58:01;;;;;;;0.00;0.00;;;;;;;15.01;63.58;101773.44;7345832;19;20034;-60
2023/05/02 02:00:29;;;;;;;0.00;0.00;;;;;;;14.93;63.69;101749.94;7355728;19;20058;-59
2023/05/02 02:02:56;;;;;;;0.00;0.00;;;;;;;15.01;63.84;101778.69;7358562;19;20849;-60
2023/05/02 02:05:23;;;;;;;0.10;0.10;;;;;;;15.01;63.90;101771.66;7355404;19;20023;-59
2023/05/02 02:07:50;;;;;;;0.00;0.00;;;;;;;14.97;63.63;101758.63;7357398;19;20021;-60
2023/05/02 02:10:15;;;;;;;0.00;0.00;;;;;;;15.00;63.40;101766.44;7356397;19;20095;-59
2023/05/02 02:12:44;;;;;;;0.10;0.10;;;;;;;14.99;63.45;101769.97;7356057;19;20074;-59
2023/05/02 02:15:33;;;;;;;0.00;0.00;;;;;;;15.00;62.84;101774.31;7354769;19;20015;-60
2023/05/02 02:18:18;;;;;;;0.00;0.00;;;;;;;14.98;63.34;101774.38;7354871;19;20090;-60
2023/05/02 02:20:46;;;;;;;0.10;0.10;;;;;;;14.87;63.46;101762.38;7353916;19;20014;-60
2023/05/02 02:23:14;;;;;;;0.05;0.05;;;;;;;14.95;63.11;101781.44;7353556;19;20905;-60
2023/05/02 02:25:39;;;;;;;0.10;0.10;;;;;;;14.92;64.03;101784.19;7350468;19;20651;-60
2023/05/02 02:28:06;;;;;;;0.10;0.10;;;;;;;14.92;64.02;101784.19;7349576;19;20014;-60
2023/05/02 02:30:32;;;;;;;0.10;0.10;;;;;;;14.89;63.69;101773.72;7352839;19;20010;-60
2023/05/02 02:32:57;;;;;;;0.00;0.00;;;;;;;14.88;64.12;101779.88;7350239;19;20010;-60
2023/05/02 02:35:29;;;;;;;0.00;0.00;;;;;;;14.89;63.55;101778.97;7351969;19;20018;-59
2023/05/02 02:38:37;;;;;;;0.10;0.10;;;;;;;14.89;62.90;101777.22;7352663;19;20123;-60
2023/05/02 02:41:17;;;;;;;0.10;0.10;;;;;;;14.85;63.51;101782.56;7250076;19;2004244;-59
2023/05/02 02:43:52;;;;;;;0.00;0.00;;;;;;;14.86;63.62;101789.59;7353209;19;20014;-60
2023/05/02 02:46:44;;;;;;;0.10;0.10;;;;;;;14.86;63.39;101786.97;7354716;19;20013;-59
2023/05/02 02:49:46;;;;;;;0.10;0.10;;;;;;;14.84;63.60;101794.00;7251889;19;2004334;-60
2023/05/02 02:52:21;;;;;;;0.08;0.08;;;;;;;14.83;62.94;101802.78;7251255;19;2004400;-60
2023/05/02 02:55:18;;;;;;;0.08;0.08;;;;;;;14.82;62.74;101799.31;7359636;19;20368;-60
2023/05/02 02:57:44;;;;;;;;;;;;;;;14.81;62.37;101796.72;7252796;19;2004295;-60
2023/05/02 03:00:20;;;;;;;0.10;0.10;;;;;;;14.78;63.32;101793.22;7354998;19;19934;-60
2023/05/02 03:02:46;;;;;;;0.10;0.10;;;;;;;14.76;64.02;101795.03;7353278;19;20473;-60
2023/05/02 03:05:12;;;;;;;0.00;0.00;;;;;;;14.73;63.81;101792.47;7345874;19;20439;-60
2023/05/02 03:07:38;;;;;;;0.00;0.00;;;;;;;14.72;64.05;101792.53;7355453;19;20006;-59
2023/05/02 03:10:05;;;;;;;0.00;0.00;;;;;;;14.70;63.99;101800.44;7357617;19;20013;-60
2023/05/02 03:12:31;;;;;;;0.00;0.00;;;;;;;14.67;64.00;101790.00;7355869;19;20014;-60
2023/05/02 03:15:13;;;;;;;0.00;0.00;;;;;;;14.69;63.85;101788.19;7355520;19;20029;-59
2023/05/02 03:17:38;;;;;;;0.00;0.00;;;;;;;14.69;64.30;101795.19;7352362;19;21053;-60
2023/05/02 03:20:04;;;;;;;0.10;0.10;;;;;;;14.68;64.47;101801.38;7339280;19;20105;-59
2023/05/02 03:22:30;;;;;;;0.00;0.00;;;;;;;14.67;64.18;101797.00;7347157;19;20097;-60
2023/05/02 03:24:55;;;;;;;0.00;0.00;;;;;;;14.66;64.35;101795.28;7346089;19;20018;-60
2023/05/02 03:27:20;;;;;;;0.00;0.00;;;;;;;14.65;64.74;101791.81;7348809;19;20015;-59
2023/05/02 03:29:46;;;;;;;0.10;0.10;;;;;;;14.64;64.61;101795.31;7347518;19;20006;-60
2023/05/02 03:32:12;;;;;;;0.00;0.00;;;;;;;14.64;64.38;101800.56;7348452;19;20014;-60
2023/05/02 03:34:37;;;;;;;0.10;0.10;;;;;;;14.63;64.23;101788.31;7349075;19;20018;-60
2023/05/02 03:37:02;;;;;;;0.00;0.00;;;;;;;14.61;64.59;101784.88;7347006;19;20093;-60
2023/05/02 03:39:28;;;;;;;0.10;0.10;;;;;;;14.59;64.14;101786.66;7348269;19;20099;-60
2023/05/02 03:41:53;;;;;;;0.10;0.10;;;;;;;14.57;64.19;101784.97;7349469;19;20752;-60
2023/05/02 03:44:19;;;;;;;0.00;0.00;;;;;;;14.53;64.38;101773.66;7346624;19;20006;-59
2023/05/02 03:46:44;;;;;;;0.10;0.10;;;;;;;14.51;64.53;101772.84;7348163;19;20063;-60
2023/05/02 03:49:10;;;;;;;0.00;0.00;;;;;;;14.47;64.90;101777.28;7348987;19;20774;-60
2023/05/02 03:51:35;;;;;;;0.10;0.10;;;;;;;14.44;64.95;101781.69;7343175;19;20011;-60
2023/05/02 03:54:03;;;;;;;0.00;0.00;;;;;;;14.42;64.46;101778.25;7349506;19;20043;-60
2023/05/02 03:56:29;;;;;;;0.00;0.00;;;;;;;14.34;65.08;101774.91;7348230;19;20018;-60
2023/05/02 03:58:54;;;;;;;0.00;0.00;;;;;;;14.35;64.75;101781.91;7348594;19;20014;-59
2023/05/02 04:01:20;;;;;;;0.10;0.10;;;;;;;14.32;64.77;101787.22;7348330;19;20905;-60
2023/05/02 04:03:45;;;;;;;0.10;0.10;;;;;;;14.30;64.78;101783.78;7347589;19;20018;-59
2023/05/02 04:06:11;;;;;;;0.00;0.00;;;;;;;14.28;65.26;101789.91;7348004;19;21009;-60
2023/05/02 04:08:37;;;;;;;0.00;0.00;;;;;;;14.13;65.04;101766.56;7346718;19;20018;-59
2023/05/02 04:11:03;;;;;;;0.00;0.00;;;;;;;14.25;65.11;101797.88;7347126;19;20542;-60
2023/05/02 04:13:28;;;;;;;0.10;0.10;;;;;;;14.16;65.20;101784.91;7347934;19;20011;-60
2023/05/02 04:15:54;;;;;;;0.10;0.10;;;;;;;14.23;65.39;101797.00;7348828;19;20018;-60
2023/05/02 04:18:19;;;;;;;0.10;0.10;;;;;;;14.23;64.99;101789.13;7344807;19;20378;-60
2023/05/02 04:20:44;;;;;;;0.10;0.10;;;;;;;14.23;65.32;101791.75;7346417;19;20456;-60
2023/05/02 04:23:10;;;;;;;0.05;0.05;;;;;;;14.15;65.18;101780.56;7347491;19;20006;-60
2023/05/02 04:25:35;;;;;;;0.00;0.00;;;;;;;14.23;65.20;101790.91;7347058;19;20097;-60
2023/05/02 04:28:01;;;;;;;0.00;0.00;;;;;;;14.23;65.62;101786.50;7345818;19;20026;-60
2023/05/02 04:30:26;;;;;;;0.00;0.00;;;;;;;14.24;65.49;101783.00;7342678;19;20014;-60
2023/05/02 04:32:52;;;;;;;0.10;0.10;;;;;;;14.24;65.39;101785.63;7346932;19;21095;-59
2023/05/02 04:35:18;;;;;;;0.00;0.00;;;;;;;13.97;65.35;101741.53;7348029;19;20772;-60
2023/05/02 04:37:43;;;;;;;0.10;0.10;;;;;;;14.20;65.50;101783.09;7347519;19;20018;-60
2023/05/02 04:40:09;;;;;;;0.10;0.10;;;;;;;14.21;65.32;101782.19;7347448;19;20019;-59
2023/05/02 04:42:34;;;;;;;0.03;0.03;;;;;;;14.23;65.64;101789.13;7346290;19;20017;-60
2023/05/02 04:45:00;;;;;;;0.10;0.10;;;;;;;14.23;65.29;101783.88;7348083;19;20752;-60
2023/05/02 04:47:25;;;;;;;0.00;0.00;;;;;;;14.23;65.75;101783.00;7345602;19;20003;-60
2023/05/02 04:49:51;;;;;;;0.10;0.10;;;;;;;14.24;65.44;101779.47;7345724;19;20010;-60
2023/05/02 04:52:17;;;;;;;0.00;0.00;;;;;;;14.23;65.47;101777.75;7346343;19;20056;-59
2023/05/02 04:54:43;;;;;;;0.10;0.10;;;;;;;14.25;65.65;101778.63;7345533;19;20007;-60
2023/05/02 04:57:09;;;;;;;0.10;0.10;;;;;;;14.25;65.67;101782.09;7345404;19;20018;-60
2023/05/02 04:59:34;;;;;;;0.00;0.00;;;;;;;14.26;65.83;101778.56;7344901;19;20010;-60
2023/05/02 05:02:00;;;;;;;0.00;0.00;;;;;;;14.25;65.74;101784.72;7344349;19;20790;-60
2023/05/02 05:04:26;;;;;;;0.10;0.10;;;;;;;14.26;66.00;101783.81;7345084;19;20039;-60
2023/05/02 05:06:51;;;;;;;0.03;0.03;;;;;;;14.26;65.97;101789.09;7346909;19;20021;-60
2023/05/02 05:09:16;;;;;;;0.00;0.00;;;;;;;14.27;65.74;101788.19;7346258;19;20854;-60
2023/05/02 05:11:42;;;;;;;0.00;0.00;;;;;;;14.28;66.17;101800.41;7347172;19;20439;-60
2023/05/02 05:14:08;;;;;;;0.08;0.08;;;;;;;14.29;65.97;101798.66;7347558;19;20016;-60
2023/05/02 05:16:33;;;;;;;0.10;0.10;;;;;;;14.31;65.65;101811.78;7347165;19;20705;-60
2023/05/02 05:18:59;;;;;;;0.10;0.10;;;;;;;14.32;66.07;101810.88;7346300;19;20018;-59
2023/05/02 05:21:26;;;;;;;0.00;0.00;;;;;;;14.33;65.83;101815.22;7347287;19;20025;-60
2023/05/02 05:23:52;;;;;;;0.00;0.00;;;;;;;14.34;65.93;101806.44;7345645;19;20022;-60
2023/05/02 05:26:17;;;;;;;0.10;0.10;;;;;;;14.35;66.29;101813.44;7345294;19;20014;-59
2023/05/02 05:28:43;;;;;;;0.10;0.10;;;;;;;14.25;66.05;101787.34;7344319;19;20889;-60
2023/05/02 05:31:10;;;;;;;0.10;0.10;;;;;;;14.33;66.19;101805.56;7344265;19;20474;-60
2023/05/02 05:33:37;;;;;;;0.00;0.00;;;;;;;14.40;66.27;101808.97;7344899;19;20031;-60
2023/05/02 05:36:09;;;;;;;0.00;0.00;;;;;;;14.37;65.82;101801.13;7344416;19;20034;-60
2023/05/02 05:38:36;;;;;;;0.10;0.10;;;;;;;14.14;66.04;101765.69;7344163;19;20035;-60
2023/05/02 05:41:02;;;;;;;0.08;0.08;;;;;;;14.31;65.82;101785.50;7345571;19;20014;-60
2023/05/02 05:43:28;;;;;;;0.08;0.08;;;;;;;14.43;65.99;101811.50;7353495;19;20455;-60
2023/05/02 05:45:54;;;;;;;0.00;0.00;;;;;;;14.43;66.04;101808.88;7349657;19;20018;-60
2023/05/02 05:48:20;;;;;;;0.10;0.10;;;;;;;14.43;65.96;101804.47;7351375;19;20014;-60
2023/05/02 05:50:46;;;;;;;0.10;0.10;;;;;;;14.44;65.69;101802.72;7351861;19;20029;-59
2023/05/02 05:53:12;;;;;;;0.10;0.10;;;;;;;14.43;65.74;101803.63;7351584;19;20014;-61
2023/05/02 05:55:38;;;;;;;0.00;0.00;;;;;;;14.35;65.47;101792.44;7350835;19;20039;-61
2023/05/02 05:58:04;;;;;;;0.00;0.00;;;;;;;14.37;65.55;101795.88;7343800;19;20039;-61
2023/05/02 06:00:29;;;;;;;0.10;0.10;;;;;;;14.41;66.07;101802.81;7357453;19;20010;-60
2023/05/02 06:02:55;;;;;;;0.10;0.10;;;;;;;14.40;65.75;101801.94;7358559;19;20014;-60
2023/05/02 06:05:20;;;;;;;0.00;0.00;;;;;;;14.41;65.78;101805.44;7354734;19;20019;-61
2023/05/02 06:07:46;;;;;;;0.00;0.00;;;;;;;14.41;65.71;101802.81;7359235;19;20018;-60
2023/05/02 06:10:11;;;;;;;0.10;0.10;;;;;;;14.41;65.68;101802.81;7361228;19;20017;-60
2023/05/02 06:12:37;;;;;;;0.10;0.10;;;;;;;14.42;66.07;101804.53;7358666;19;20014;-60
2023/05/02 06:15:02;;;;;;;0.08;0.08;;;;;;;14.42;66.21;101794.00;7357284;19;20531;-60
2023/05/02 06:17:28;;;;;;;0.10;0.10;;;;;;;14.42;65.75;101794.88;7358462;19;20034;-60
2023/05/02 06:19:53;;;;;;;0.00;0.00;;;;;;;14.40;66.08;101801.94;7353103;19;20062;-60
2023/05/02 06:22:18;;;;;;;0.10;0.10;;;;;;;14.43;65.69;101806.25;7356870;19;20358;-60
2023/05/02 06:24:44;;;;;;;0.00;0.00;;;;;;;14.43;65.06;101806.25;7354988;19;20040;-60
2023/05/02 06:27:09;;;;;;;0.00;0.00;;;;;;;14.44;65.59;101800.09;7356947;19;20116;-60
2023/05/02 06:29:35;;;;;;;0.10;0.10;;;;;;;14.38;65.53;101792.34;7353236;19;20010;-60
2023/05/02 06:32:00;;;;;;;0.00;0.00;;;;;;;14.50;65.62;101807.91;7353414;19;20028;-60
2023/05/02 06:34:26;;;;;;;0.03;0.03;;;;;;;14.53;65.31;101810.44;7350973;19;20011;-60
2023/05/02 06:36:55;;;;;;;0.00;0.00;;;;;;;14.51;65.76;101799.97;7351275;19;20841;-60
2023/05/02 06:39:21;;;;;;;0.10;0.10;;;;;;;14.61;65.56;101810.31;7347481;19;20040;-60
2023/05/02 06:41:47;;;;;;;0.00;0.00;;;;;;;14.66;65.84;101808.44;7349241;19;20043;-60
2023/05/02 06:44:12;;;;;;;0.00;0.00;;;;;;;14.66;64.68;101808.44;7350116;19;20446;-60
2023/05/02 06:46:38;;;;;;;0.00;0.00;;;;;;;14.72;64.93;101819.66;7350966;19;20022;-60
2023/05/02 06:49:03;;;;;;;0.00;0.00;;;;;;;14.74;65.17;101823.13;7350984;19;20018;-60
2023/05/02 06:51:30;;;;;;;0.00;0.00;;;;;;;14.75;65.17;101809.09;7351427;19;20002;-60
2023/05/02 06:53:56;;;;;;;0.10;0.10;;;;;;;14.77;65.29;101811.69;7350785;19;20460;-61
2023/05/02 06:56:24;;;;;;;0.10;0.10;;;;;;;14.82;65.27;101815.06;7349821;19;20010;-60
2023/05/02 06:58:49;;;;;;;0.03;0.03;;;;;;;14.84;65.06;101817.66;7352739;19;20016;-60
2023/05/02 07:01:15;;;;;;;0.10;0.10;;;;;;;14.88;65.05;101819.31;7349843;19;20010;-60
2023/05/02 07:03:40;;;;;;;0.00;0.00;;;;;;;14.91;64.95;101814.88;7353894;19;20006;-60
2023/05/02 07:06:06;;;;;;;0.10;0.10;;;;;;;14.76;64.58;101786.31;7356456;19;20014;-60
2023/05/02 07:08:31;;;;;;;0.10;0.10;;;;;;;14.96;64.61;101813.00;7355788;19;20466;-60
2023/05/02 07:10:56;;;;;;;0.03;0.03;;;;;;;15.01;64.68;101818.16;7355854;19;20040;-60
2023/05/02 07:13:22;;;;;;;0.10;0.10;;;;;;;15.04;65.04;101800.53;7359623;19;20074;-60
2023/05/02 07:15:47;;;;;;;0.00;0.00;;;;;;;15.08;64.85;101806.59;7359186;19;20021;-60
2023/05/02 07:18:13;;;;;;;0.10;0.10;;;;;;;15.05;64.73;101798.75;7356296;19;20010;-60
2023/05/02 07:20:40;;;;;;;0.10;0.10;;;;;;;15.00;64.72;101776.94;7355373;19;20021;-60
2023/05/02 07:23:05;;;;;;;0.00;0.00;;;;;;;15.09;64.78;101789.88;7356426;19;20082;-60
2023/05/02 07:25:31;;;;;;;0.00;0.00;;;;;;;15.21;64.53;101801.91;7355990;19;20014;-60
2023/05/02 07:27:56;;;;;;;0.10;0.10;;;;;;;15.24;65.12;101800.03;7352072;19;20454;-60
2023/05/02 07:30:22;;;;;;;0.00;0.00;;;;;;;15.30;64.97;101806.91;7354932;19;20014;-60
2023/05/02 07:32:48;;;;;;;0.05;0.05;;;;;;;15.33;64.72;101809.47;7352787;19;20099;-60
2023/05/02 07:35:13;;;;;;;0.03;0.03;;;;;;;15.42;64.79;101811.91;7351931;19;20038;-60
2023/05/02 07:37:38;;;;;;;0.10;0.10;;;;;;;15.50;64.98;101814.31;7348205;19;20014;-60
2023/05/02 07:40:06;;;;;;;0.10;0.10;;;;;;;15.57;64.26;101815.91;7351433;19;20014;-60
2023/05/02 07:42:31;;;;;;;0.05;0.05;;;;;;;15.67;64.30;101817.44;7348149;19;20028;-60
2023/05/02 07:44:57;;;;;;;0.10;0.10;;;;;;;15.76;64.35;101822.47;7348647;19;20006;-60
2023/05/02 07:47:23;;;;;;;0.10;0.10;;;;;;;15.82;64.20;101806.50;7347880;19;20010;-60
2023/05/02 07:49:53;;;;;;;0.00;0.00;;;;;;;15.92;64.16;101816.78;7344823;19;20027;-60
2023/05/02 07:52:19;;;;;;;0.10;0.10;;;;;;;15.92;64.03;101816.78;7348533;19;20016;-60
2023/05/02 07:54:46;;;;;;;0.10;0.10;;;;;;;15.89;63.94;101798.41;7349301;19;20812;-60
2023/05/02 07:57:12;;;;;;;0.10;0.10;;;;;;;16.12;64.32;101825.00;7351896;19;20439;-60
2023/05/02 07:59:37;;;;;;;0.10;0.10;;;;;;;16.11;63.92;101807.44;7346392;19;20021;-60
2023/05/02 08:02:03;;;;;;;0.10;0.10;;;;;;;15.93;63.96;101760.56;7349869;19;20015;-60
2023/05/02 08:04:29;;;;;;;0.00;0.00;;;;;;;16.35;63.97;101822.56;7351619;19;20015;-61
2023/05/02 08:06:55;;;;;;;0.10;0.10;;;;;;;16.43;63.71;101829.41;7341342;19;20989;-60
2023/05/02 08:09:20;;;;;;;0.00;0.00;;;;;;;16.49;63.47;101829.22;7352220;19;20014;-60
2023/05/02 08:11:46;;;;;;;0.10;0.10;;;;;;;16.47;63.23;101820.47;7353916;19;20031;-60
2023/05/02 08:14:11;;;;;;;0.05;0.05;;;;;;;16.48;63.03;101812.53;7356646;19;20493;-60
2023/05/02 08:16:37;;;;;;;0.10;0.10;;;;;;;16.66;62.88;101837.50;7357241;19;20041;-60
2023/05/02 08:19:02;;;;;;;0.05;0.05;;;;;;;16.70;62.72;101833.84;7358970;19;20073;-60
2023/05/02 08:21:28;;;;;;;0.10;0.10;;;;;;;16.75;62.61;101829.34;7355693;19;20014;-60
2023/05/02 08:23:57;;;;;;;0.10;0.10;;;;;;;16.83;62.45;101829.97;7356246;19;20006;-60
2023/05/02 08:26:23;;;;;;;0.10;0.10;;;;;;;16.86;62.95;101837.78;7351020;19;20471;-61
2023/05/02 08:28:50;;;;;;;0.10;0.10;;;;;;;16.89;62.79;101834.19;7354680;19;20014;-60
2023/05/02 08:31:15;;;;;;;0.10;0.10;;;;;;;16.96;62.29;101840.13;7352816;19;20023;-60
2023/05/02 08:33:41;;;;;;;0.00;0.00;;;;;;;17.06;62.29;101846.84;7356629;19;20601;-60
2023/05/02 08:36:14;;;;;;;0.10;0.10;;;;;;;17.09;62.05;101826.53;7351112;19;20014;-60
2023/05/02 08:38:41;;;;;;;0.10;0.10;;;;;;;17.23;61.95;101847.19;7353305;19;20486;-60
2023/05/02 08:41:28;;;;;;;0.10;0.10;;;;;;;17.36;61.91;101845.88;7348109;19;20027;-60
2023/05/02 08:43:55;;;;;;;0.10;0.10;;;;;;;17.36;62.18;101843.22;7348268;19;20011;-61
2023/05/02 08:46:21;;;;;;;0.10;0.10;;;;;;;17.46;62.07;101850.88;7348347;19;20026;-60
2023/05/02 08:48:49;;;;;;;0.05;0.05;;;;;;;17.54;61.90;101859.41;7346459;19;20045;-60
2023/05/02 08:51:16;;;;;;;0.10;0.10;;;;;;;17.60;61.23;101854.78;7343108;19;20015;-60
2023/05/02 08:53:42;;;;;;;0.05;0.05;;;;;;;17.67;61.72;101855.41;7348924;19;20086;-60
2023/05/02 08:56:10;;;;;;;0.10;0.10;;;;;;;17.76;61.28;101860.44;7347171;19;20014;-60
2023/05/02 08:58:36;;;;;;;0.10;0.10;;;;;;;17.49;61.38;101800.59;7348193;19;20996;-60
2023/05/02 09:01:13;;;;;;;0.10;0.10;;;;;;;18.04;61.40;101864.75;7346606;19;20029;-60
2023/05/02 09:03:41;;;;;;;0.10;0.10;;;;;;;18.12;59.43;101852.13;7349721;19;20353;-60
2023/05/02 09:06:14;;;;;;;0.10;0.10;;;;;;;18.37;60.28;101858.25;7348323;19;20051;-61
2023/05/02 09:08:41;;;;;;;0.10;0.10;;;;;;;18.44;60.16;101863.31;7351371;19;20011;-60
2023/05/02 09:11:08;;;;;;;0.00;0.00;;;;;;;18.45;60.05;101857.09;7350757;19;20022;-60
2023/05/02 09:13:48;;;;;;;0.10;0.10;;;;;;;18.71;60.45;101872.91;7352514;19;20038;-61
2023/05/02 09:16:16;;;;;;;0.10;0.10;;;;;;;18.79;60.02;101880.53;7354787;19;20015;-61
2023/05/02 09:18:44;;;;;;;0.10;0.10;;;;;;;18.84;59.64;101871.50;7361657;19;20773;-60
2023/05/02 09:21:15;;;;;;;0.10;0.10;;;;;;;18.91;59.87;101870.38;7362160;19;20011;-60
2023/05/02 09:23:42;;;;;;;0.10;0.10;;;;;;;19.02;60.15;101879.66;7362822;19;20010;-60
2023/05/02 09:26:12;;;;;;;0.10;0.10;;;;;;;18.95;60.69;101838.47;7359397;19;20019;-61
2023/05/02 09:28:41;;;;;;;0.10;0.10;;;;;;;19.25;60.50;101869.00;7360249;19;22151;-60
2023/05/02 09:31:09;;;;;;;0.10;0.10;;;;;;;19.38;60.12;101859.66;7358644;19;20010;-61
2023/05/02 09:33:35;;;;;;;0.10;0.10;;;;;;;19.53;59.32;101857.31;7360572;19;20022;-61
2023/05/02 09:36:00;;;;;;;0.08;0.08;;;;;;;19.60;59.36;101837.59;7354434;19;20485;-65
2023/05/02 09:38:26;;;;;;;0.10;0.10;;;;;;;19.84;59.14;101855.09;7350680;19;20027;-65
2023/05/02 09:40:55;;;;;;;0.10;0.10;;;;;;;20.03;58.33;101852.53;7351505;19;20003;-65
2023/05/02 09:43:20;;;;;;;0.10;0.10;;;;;;;20.10;58.06;101842.50;7355307;19;20523;-65
2023/05/02 09:45:58;;;;;;;0.10;0.10;;;;;;;20.31;58.80;101838.88;7351498;19;20003;-65
2023/05/02 09:48:25;;;;;;;0.10;0.10;;;;;;;20.29;57.98;101816.88;7349741;19;20006;-65
2023/05/02 09:50:51;;;;;;;0.10;0.10;;;;;;;20.56;58.13;101835.13;7351973;19;20677;-65
2023/05/02 09:53:16;;;;;;;0.08;0.08;;;;;;;20.76;58.03;101837.72;7348746;19;20028;-65
2023/05/02 09:55:42;;;;;;;0.10;0.10;;;;;;;20.95;57.67;101841.22;7350679;19;20026;-65
2023/05/02 09:58:20;;;;;;;0.08;0.08;;;;;;;21.23;58.40;101842.53;7353526;19;20006;-65
2023/05/02 10:00:46;;;;;;;0.10;0.10;;;;;;;21.38;55.07;101841.81;7350682;19;20087;-66
2023/05/02 10:03:15;;;;;;;0.10;0.10;;;;;;;21.65;56.67;101849.34;7353090;19;20038;-65
2023/05/02 10:05:43;;;;;;;0.10;0.10;;;;;;;21.79;56.01;101851.28;7354960;19;20117;-65
2023/05/02 10:08:10;;;;;;;0.10;0.10;;;;;;;21.98;55.32;101842.28;7354493;19;20010;-65
2023/05/02 10:10:38;;;;;;;0.08;0.08;;;;;;;22.17;55.67;101846.66;7353819;19;20712;-66
2023/05/02 10:13:04;;;;;;;0.10;0.10;;;;;;;22.30;55.31;101842.38;7354911;19;20090;-65
2023/05/02 10:15:31;;;;;;;0.10;0.10;;;;;;;22.52;54.74;101858.94;7354970;19;20030;-62
2023/05/02 10:18:02;;;;;;;0.10;0.10;;;;;;;22.75;55.04;101860.31;7355972;19;20785;-66
2023/05/02 10:20:31;;;;;;;0.10;0.10;;;;;;;22.77;54.07;101820.31;7343864;19;20498;-65
2023/05/02 10:23:03;;;;;;;0.10;0.10;;;;;;;23.26;54.73;101860.16;7349948;19;20047;-65
2023/05/02 10:25:29;;;;;;;0.10;0.10;;;;;;;23.42;54.24;101876.13;7353255;19;20039;-65
2023/05/02 10:27:58;;;;;;;0.10;0.10;;;;;;;23.74;54.32;101863.63;7347295;19;20357;-66
2023/05/02 10:30:25;;;;;;;0.00;0.00;;;;;;;23.94;51.50;101852.59;7349481;19;20006;-66
2023/05/02 10:32:55;;;;;;;0.10;0.10;;;;;;;24.15;51.53;101845.09;7349066;19;20593;-65
2023/05/02 10:35:21;;;;;;;0.10;0.10;;;;;;;24.37;50.88;101851.81;7350137;19;20039;-66
2023/05/02 10:37:48;;;;;;;0.10;0.10;;;;;;;24.57;50.51;101852.25;7349584;19;20030;-65
2023/05/02 10:40:14;;;;;;;0.10;0.10;;;;;;;24.70;49.15;101843.47;7349023;19;20056;-62
2023/05/02 10:42:44;;;;;;;0.10;0.10;;;;;;;25.02;50.94;101858.28;7350834;19;20007;-65
2023/05/02 10:45:11;;;;;;;0.10;0.10;;;;;;;25.23;50.08;101866.72;7348828;19;20104;-66
2023/05/02 10:47:37;;;;;;;0.10;0.10;;;;;;;25.41;49.92;101850.44;7350283;19;20018;-65
2023/05/02 10:50:03;;;;;;;0.00;0.00;;;;;;;25.60;48.87;101857.13;7348094;19;20342;-66
2023/05/02 10:52:37;;;;;;;0.10;0.10;;;;;;;25.85;49.31;101869.72;7349560;19;20017;-65
2023/05/02 10:55:22;;;;;;;0.10;0.10;;;;;;;25.93;49.80;101844.25;7347986;19;20625;-66
2023/05/02 10:58:00;;;;;;;0.10;0.10;;;;;;;26.17;49.53;101869.31;7349035;19;20478;-66
2023/05/02 11:00:31;;;;;;;0.10;0.10;;;;;;;26.14;48.12;101870.38;7348814;19;20010;-66
2023/05/02 11:02:56;;;;;;;0.10;0.10;;;;;;;26.19;47.78;101878.09;7347626;19;20035;-65
2023/05/02 11:05:23;;;;;;;0.10;0.10;;;;;;;26.26;46.81;101873.19;7347635;19;20042;-65
2023/05/02 11:07:49;;;;;;;0.10;0.10;;;;;;;26.26;47.69;101867.81;7347328;19;20014;-65
2023/05/02 11:10:17;;;;;;;0.03;0.03;;;;;;;26.44;48.17;101885.28;7349768;19;20014;-66
2023/05/02 11:12:49;;;;;;;0.00;0.00;;;;;;;26.53;47.40;101876.59;7349393;19;20014;-65
2023/05/02 11:15:40;;;;;;;0.10;0.10;;;;;;;26.64;48.48;101889.22;7349673;19;20010;-66
2023/05/02 11:18:11;;;;;;;0.00;0.00;;;;;;;26.54;46.38;101894.38;7246270;19;2004439;-66
2023/05/02 11:20:40;;;;;;;0.10;0.10;;;;;;;26.51;47.54;101877.66;7348644;19;20471;-65
2023/05/02 11:23:14;;;;;;;0.10;0.10;;;;;;;26.60;47.61;101888.56;7348649;19;20862;-66
2023/05/02 11:25:45;;;;;;;0.10;0.10;;;;;;;26.56;45.59;101897.81;7345059;19;21143;-65
2023/05/02 11:28:35;;;;;;;0.00;0.00;;;;;;;26.70;47.42;101886.09;7347608;19;20014;-66